Bookmark and Share
Track history (hours):
 

Eurika

Last reported at 2014-Apr-17 05:33 UTC. Time now 2014-Apr-20 05:50 UTC.
Position N 42°35' E 006°22'.

Length 79 m; draft 3.2 m.

MMSI: 277335000.

NotesDate/timePositionNaut miles runAvg speedWind from/ knotsBaromVisibWave heightAir tempDewpointWater temp
2014-Apr-17 05:33N 42°35' E 006°22'8 7.9
2014-Apr-17 04:33N 42°39' E 006°13'8 8.3
2014-Apr-17 03:33N 42°44' E 006°04'8 8.1
2014-Apr-17 02:33N 42°49' E 005°55'7 7.4
2014-Apr-17 01:33N 42°52' E 005°46'7 7.4
2014-Apr-17 00:33N 42°56' E 005°38'27 7.9
2014-Apr-16 21:07N 43°12' E 005°08'4 7.7
2014-Apr-16 20:33N 43°16' E 005°04'8 7.6
2014-Apr-16 19:33N 43°22' E 004°57'7 5.9
2014-Apr-16 18:27N 43°23' E 004°49'0 0.1
2014-Apr-16 17:32N 43°23' E 004°48'0 0.0
2014-Apr-16 16:33N 43°23' E 004°48'  
2014-Apr-11 07:04N 43°23' E 004°48'2 2.7
2014-Apr-11 06:28N 43°23' E 004°51'6 6.7
2014-Apr-11 05:33N 43°21' E 004°59'7 6.8
2014-Apr-11 04:33N 43°16' E 005°04'6 2.9
2014-Apr-11 02:28N 43°11' E 005°09'3 2.6
2014-Apr-11 01:25N 43°09' E 005°12'9 4.2
2014-Apr-10 23:11N 43°03' E 005°22'6 3.8
2014-Apr-10 21:33N 42°59' E 005°28'5 4.9
2014-Apr-10 20:32N 42°56' E 005°33'5 5.1
2014-Apr-10 19:33N 42°53' E 005°38'5 4.9
2014-Apr-10 18:33N 42°49' E 005°44'5 5.2
2014-Apr-10 17:32N 42°46' E 005°49'6 6.0
2014-Apr-10 16:33N 42°42' E 005°55'  

Dump ship's entire track history

sailing weather and tide predictions

Eurika — LYRZ — position and weather